ADDS METAR Data INFO
IDs: Format: Raw Decoded Include TAF

Data at: 1950 UTC 14 Aug 2018

KSMQ 141918Z AUTO 00000KT 10SM -RA FEW060 FEW080 OVC110 23/22 A2983 RMK AO2 LTG DSNT E-SW RAE1858B17 TSB1857E12 P0000 T02330217
KSMQ 141903Z AUTO 00000KT 10SM TS FEW060 FEW075 OVC110 24/21 A2984 RMK AO2 LTG DSNT E AND SW RAE1858 TSB1857 P0000 T02390211
KSMQ 141853Z AUTO 00000KT 8SM -RA FEW065 FEW080 OVC110 24/21 A2983 RMK AO2 LTG DSNT NE AND SW RAB46 SLP102 P0000 T02390211
KSMQ 141820Z AUTO 32007KT 10SM FEW060 SCT085 BKN110 26/21 A2983 RMK AO2 LTG DSNT NE T02560211
KSMQ 141753Z AUTO 30009G17KT 10SM VCTS FEW027 SCT035 BKN055 26/20 A2984 RMK AO2 RAB04E27 SLP104 P0003 60003 T02560200 10272 20200 55007
KSMQ 141750Z AUTO 31011G17KT 10SM VCTS SCT030 SCT044 BKN055 26/21 A2984 RMK AO2 RAB04E27 P0003
KSMQ 141653Z AUTO VRB05KT 10SM SCT032 BKN041 BKN085 27/22 A2984 RMK AO2 LTG DSNT W AND NW SLP105 T02670217
KSMQ 141613Z AUTO 19008KT 10SM SCT023 SCT037 26/22 A2985 RMK AO2 LTG DSNT W T02610222
KSMQ 141600Z AUTO VRB06KT 10SM VCTS FEW019 SCT023 SCT030 26/22 A2985 RMK AO2 LTG DSNT NW T02610222
KSMQ 141553Z AUTO VRB06KT 10SM VCTS FEW019 BKN027 BKN037 26/22 A2986 RMK AO2 SLP111 T02560222
KSMQ 141529Z AUTO 20005KT 10SM BKN017 BKN026 24/22 A2987 RMK AO2 T02440222
KSMQ 141453Z AUTO VRB05KT 10SM BKN012 BKN018 OVC023 23/22 A2988 RMK AO2 SLP117 T02330222 51002
KSMQ 141432Z AUTO 19005KT 10SM BKN010 OVC019 23/22 A2988 RMK AO2 T02280222
KSMQ 141353Z AUTO 19003KT 9SM OVC009 22/22 A2988 RMK AO2 CIG 007V011 SLP117 T02220217
KSMQ 141253Z AUTO 00000KT 7SM OVC007 21/21 A2988 RMK AO2 SLP117 T02060206
KSMQ 141200Z AUTO 5SM BR SCT005 OVC009 21/21 A2987 RMK AO2 T02060206
KSMQ 141153Z AUTO 5SM BR BKN005 OVC010 20/20 A2987 RMK AO2 SLP114 70047 T02000200 10211 20200 50004
KSMQ 141137Z AUTO 3SM BR BKN004 OVC011 20/20 A2988 RMK AO2 T02000200 $
KSMQ 141134Z AUTO 19003KT 1 3/4SM BR BKN004 OVC011 21/21 A2988 RMK AO2 T02060206 $
KSMQ 141125Z AUTO 00000KT 3/4SM BR VV004 21/21 A2987 RMK AO2 T02060206 $
KSMQ 141053Z AUTO 00000KT 1/4SM FG VV004 20/20 A2988 RMK AO2 SLP117 T02000200 $
KSMQ 141007Z AUTO 00000KT 1/4SM FG VV004 20/20 A2986 RMK AO2 T02000200 $
KSMQ 140953Z AUTO 00000KT 1/2SM FG VV004 20/20 A2986 RMK AO2 SLP110 T02000200 $
KSMQ 140948Z AUTO 00000KT 1/2SM FG BKN004 OVC013 20/20 A2986 RMK AO2 $
KSMQ 140937Z AUTO 00000KT 1 1/2SM BR BKN004 OVC013 20/20 A2986 RMK AO2 T02000200 $
KSMQ 140935Z AUTO 00000KT 2SM BR SCT004 OVC013 20/20 A2986 RMK AO2 T02000200 $
KSMQ 140921Z AUTO 00000KT 3SM BR SCT004 OVC013 20/20 A2986 RMK AO2 T02000200 $
KSMQ 140914Z AUTO 00000KT 3SM BR BKN004 OVC013 20/20 A2986 RMK AO2 T02000200 $
KSMQ 140906Z AUTO 00000KT 2SM BR BKN004 OVC012 20/20 A2986 RMK AO2 T02000200 $
KSMQ 140853Z AUTO 00000KT 1SM BR BKN005 BKN012 20/20 A2985 RMK AO2 SLP108 T02000200 58003 $
KSMQ 140847Z AUTO 00000KT 1 3/4SM BR BKN005 BKN012 20/20 A2985 RMK AO2 $
KSMQ 140834Z AUTO 00000KT 4SM BR BKN005 OVC013 21/21 A2985 RMK AO2 T02060206 $
KSMQ 140829Z AUTO 00000KT 2 1/2SM BR OVC004 21/21 A2985 RMK AO2 T02060206 $
KSMQ 140806Z AUTO 35003KT 3SM BR OVC004 21/21 A2985 RMK AO2 T02060206 $
KSMQ 140753Z AUTO 00000KT 1SM BR VV004 21/21 A2986 RMK AO2 SLP110 T02060206 $
KSMQ 140749Z AUTO 00000KT 1 1/4SM BR OVC004 21/21 A2986 RMK AO2 $
KSMQ 140709Z AUTO 00000KT 1/2SM FG VV004 21/21 A2986 RMK AO2 T02060206 $
KSMQ 140653Z AUTO 00000KT 1/4SM FG VV003 21/21 A2986 RMK AO2 SLP111 T02060206 $
KSMQ 140553Z AUTO 00000KT 1/4SM FG VV004 21/21 A2988 RMK AO2 SLP117 T02060206 10222 20200 58004 $
KSMQ 140544Z AUTO 00000KT 1/4SM FG VV004 21/21 A2988 RMK AO2 T02060206 $
KSMQ 140527Z AUTO 00000KT 1/2SM FG VV004 21/21 A2988 RMK AO2 T02110211 $
KSMQ 140515Z AUTO 00000KT 1/4SM FG VV004 21/21 A2988 RMK AO2 T02110211 $
KSMQ 140508Z AUTO 00000KT 1/2SM FG VV004 21/21 A2988 RMK AO2 T02110211 $
KSMQ 140453Z AUTO 00000KT 1/4SM FG VV004 21/21 A2989 RMK AO2 SLP120 T02110211 402500200 $
KSMQ 140418Z AUTO 00000KT 1/4SM FG VV004 21/21 A2989 RMK AO2 T02110211 $
KSMQ 140353Z AUTO 00000KT 1/2SM FG VV004 21/21 A2988 RMK AO2 SLP119 T02060206 $
KSMQ 140325Z AUTO 00000KT 1/2SM FG VV003 21/21 A2988 RMK AO2 T02060206 $
KSMQ 140311Z AUTO 03003KT 1 1/4SM BR BKN004 OVC012 21/21 A2987 RMK AO2 T02110211 $
KSMQ 140302Z AUTO 00000KT 1 1/4SM BR BKN006 BKN012 OVC029 21/21 A2988 RMK AO2 T02060206 $
KSMQ 140253Z AUTO 00000KT 3/4SM BR VV005 21/21 A2989 RMK AO2 SLP121 T02060206 50002 $
KSMQ 140153Z AUTO 00000KT 3/4SM BR VV003 21/21 A2990 RMK AO2 LTG DSNT SW SLP124 T02060206 $
KSMQ 140137Z AUTO 00000KT 3/4SM BR VV003 21/21 A2990 RMK AO2 LTG DSNT SW T02110211 $
KSMQ 140121Z AUTO 00000KT 1 1/4SM BR BKN003 BKN012 22/22 A2989 RMK AO2 LTG DSNT SW T02170217 $
KSMQ 140101Z AUTO 00000KT 2SM BR FEW004 BKN012 21/21 A2989 RMK AO2 T02110211 $
KSMQ 140053Z AUTO 00000KT 3/4SM BR FEW004 OVC012 21/21 A2989 RMK AO2 SLP120 T02110211 $
KSMQ 140034Z AUTO 00000KT 3/4SM BR SCT004 BKN012 22/22 A2988 RMK AO2 T02170217 $
KSMQ 140029Z AUTO 00000KT 1SM BR VV004 22/22 A2988 RMK AO2 T02170217 $
KSMQ 140025Z AUTO 00000KT 2 1/2SM BR SCT003 22/22 A2988 RMK AO2 VIS 3/4V5 T02170217 $
KSMQ 140016Z AUTO 00000KT 4SM BR FEW012 22/22 A2988 RMK AO2 T02170217 $
KSMQ 140009Z AUTO 00000KT 1 1/4SM BR FEW012 22/22 A2988 RMK AO2 VIS 3/4V5 T02170217 $
KSMQ 140006Z AUTO 00000KT 3/4SM BR VV012 22/22 A2988 RMK AO2 VIS 1/2V1 1/2 T02170217 $
KSMQ 140000Z AUTO 00000KT 1 1/2SM BR FEW012 22/22 A2988 RMK AO2 T02220222 $
KSMQ 132353Z AUTO 00000KT 8SM FEW012 23/23 A2988 RMK AO2 SLP119 60002 T02280228 10250 20222 55000 $
KSMQ 132253Z AUTO 35003KT 10SM FEW009 SCT030 BKN048 24/23 A2988 RMK AO2 SLP117 T02390233 $
KSMQ 132153Z AUTO 00000KT 9SM BKN022 OVC026 24/23 A2988 RMK AO2 RAB08E49 SLP119 P0000 T02390233 $
KSMQ 132103Z AUTO 36003KT 10SM OVC015 24/23 A2990 RMK AO2 T02390228 $
KSMQ 132053Z AUTO 36003KT 9SM BKN014 BKN028 OVC034 24/23 A2990 RMK AO2 RAE24 SLP124 P0001 60002 T02390228 56009 $
KSMQ 132039Z AUTO 00000KT 9SM SCT014 BKN027 OVC043 24/23 A2990 RMK AO2 RAE24 P0001 T02390228 $
KSMQ 132020Z AUTO 04003KT 5SM -RA BR FEW012 BKN032 OVC038 24/23 A2991 RMK AO2 P0001 T02390233 $
KSMQ 131953Z AUTO 03004KT 6SM -RA BR OVC017 23/23 A2991 RMK AO2 RAB1855E30B51 SLP127 P0001 T02330228 $
KSMQ 131853Z AUTO 08005KT 9SM OVC018 24/23 A2993 RMK AO2 SLP133 T02390228 $
KSMQ 131753Z AUTO VRB05KT 10SM SCT012 OVC021 24/23 A2994 RMK AO2 RAE21 SLP136 P0000 60045 T02440233 10244 20222 58013 $
KSMQ 131712Z AUTO VRB05KT 5SM -RA BR SCT013 BKN023 OVC031 23/23 A2994 RMK AO2 P0000 T02330228 $
KSMQ 131653Z AUTO 01004KT 3SM -RA BR BKN013 BKN019 OVC025 23/23 A2996 RMK AO2 RAB1554 SLP144 P0035 T02280228 $
KSMQ 131639Z AUTO 35003KT 3SM -RA BR BKN015 OVC019 23/23 A2996 RMK AO2 RAB1554 P0033 T02280228 $
KSMQ 131631Z AUTO 01003KT 1SM +RA BR BKN015 OVC028 22/22 A2996 RMK AO2 RAB1554 P0032 T02220222 $
KSMQ 131623Z AUTO 02007KT 1/2SM +RA FG OVC014 22/22 A2996 RMK AO2 RAB1554 P0028 T02220222 $
KSMQ 131614Z AUTO 08005KT 1 3/4SM RA BR OVC014 23/22 A2997 RMK AO2 RAB1554 P0008 T02280222 $
KSMQ 131610Z AUTO VRB04KT 5SM -RA BR OVC014 23/22 A2997 RMK AO2 RAB1554 P0001 T02280222 $
KSMQ 131553Z AUTO 04006KT 9SM OVC015 23/22 A2997 RMK AO2 RAE44 SLP149 P0000 T02330222 $
KSMQ 131546Z AUTO VRB03KT 10SM OVC015 23/23 A2998 RMK AO2 RAE44 P0000 T02330228 $
KSMQ 131453Z AUTO 05006KT 7SM -RA OVC013 23/22 A2998 RMK AO2 SLP153 P0003 60010 T02280222 58003 $
KSMQ 131353Z AUTO 03006KT 6SM -RA BR BKN012 BKN019 OVC047 23/22 A2999 RMK AO2 SLP155 P0006 T02280222 $
KSMQ 131334Z AUTO 05005KT 4SM -RA BR SCT013 BKN019 OVC047 22/22 A2999 RMK AO2 P0005 T02220222 $
KSMQ 131253Z AUTO 06005KT 6SM -RA BR OVC012 22/22 A2999 RMK AO2 SLP156 P0001 T02220217 $
KSMQ 131153Z AUTO 06004KT 9SM -RA OVC013 22/22 A2999 RMK AO2 RAB19 SLP156 P0001 60001 70001 T02220222 10239 20222 50001 $
KSMQ 131113Z AUTO VRB04KT 10SM OVC013 23/22 A3000 RMK AO2 T02330222 $
KSMQ 131053Z AUTO 06007KT 020V080 10SM OVC016 23/22 A3000 RMK AO2 SLP155 T02330222 $
KSMQ 131026Z AUTO 10SM BKN018 OVC032 23/22 A3000 RMK AO2 T02330222 $
KSMQ 131004Z AUTO VRB03KT 10SM FEW013 SCT022 OVC032 23/22 A3000 RMK AO2 T02330222 $
KSMQ 130953Z AUTO 04005KT 10SM SCT013 OVC028 23/22 A2999 RMK AO2 SLP155 T02330222 $
KSMQ 130928Z AUTO VRB04KT 10SM FEW012 BKN029 23/22 A3000 RMK AO2 T02330222 $
KSMQ 130853Z AUTO 05004KT 10SM SCT012 SCT045 23/22 A2999 RMK AO2 SLP153 T02330222 56010 $
KSMQ 130753Z AUTO 06004KT 10SM SCT037 23/22 A2999 RMK AO2 SLP155 T02330222 $